sensor_id;sensor_type;location;lat;lon;timestamp;temperature;humidity
9987;DHT22;5033;46.310;11.214;2023-04-05T00:01:55;5.50;90.50
9987;DHT22;5033;46.310;11.214;2023-04-05T00:04:23;5.50;90.60
9987;DHT22;5033;46.310;11.214;2023-04-05T00:06:50;5.50;90.70
9987;DHT22;5033;46.310;11.214;2023-04-05T00:09:19;5.50;90.80
9987;DHT22;5033;46.310;11.214;2023-04-05T00:11:46;5.40;91.10
9987;DHT22;5033;46.310;11.214;2023-04-05T00:14:15;5.40;91.10
9987;DHT22;5033;46.310;11.214;2023-04-05T00:16:42;5.40;91.30
9987;DHT22;5033;46.310;11.214;2023-04-05T00:19:09;5.30;91.20
9987;DHT22;5033;46.310;11.214;2023-04-05T00:21:37;5.40;91.30
9987;DHT22;5033;46.310;11.214;2023-04-05T00:24:05;5.40;91.30
9987;DHT22;5033;46.310;11.214;2023-04-05T00:26:34;5.30;91.50
9987;DHT22;5033;46.310;11.214;2023-04-05T00:29:01;5.30;91.40
9987;DHT22;5033;46.310;11.214;2023-04-05T00:31:30;5.30;91.50
9987;DHT22;5033;46.310;11.214;2023-04-05T00:33:56;5.20;91.60
9987;DHT22;5033;46.310;11.214;2023-04-05T00:36:23;5.20;92.00
9987;DHT22;5033;46.310;11.214;2023-04-05T00:38:50;5.20;92.00
9987;DHT22;5033;46.310;11.214;2023-04-05T00:41:17;5.20;91.90
9987;DHT22;5033;46.310;11.214;2023-04-05T00:43:45;5.20;92.10
9987;DHT22;5033;46.310;11.214;2023-04-05T00:46:12;5.20;92.10
9987;DHT22;5033;46.310;11.214;2023-04-05T00:48:40;5.10;92.20
9987;DHT22;5033;46.310;11.214;2023-04-05T00:51:09;5.10;92.20
9987;DHT22;5033;46.310;11.214;2023-04-05T00:53:37;5.10;92.30
9987;DHT22;5033;46.310;11.214;2023-04-05T00:56:04;5.00;92.50
9987;DHT22;5033;46.310;11.214;2023-04-05T00:58:31;5.00;92.40
9987;DHT22;5033;46.310;11.214;2023-04-05T01:01:02;5.00;92.70
9987;DHT22;5033;46.310;11.214;2023-04-05T01:03:33;5.00;92.60
9987;DHT22;5033;46.310;11.214;2023-04-05T01:06:14;5.00;92.70
9987;DHT22;5033;46.310;11.214;2023-04-05T01:08:48;5.00;92.70
9987;DHT22;5033;46.310;11.214;2023-04-05T01:11:18;5.00;92.70
9987;DHT22;5033;46.310;11.214;2023-04-05T01:13:45;5.00;92.80
9987;DHT22;5033;46.310;11.214;2023-04-05T01:16:13;5.00;92.80
9987;DHT22;5033;46.310;11.214;2023-04-05T01:18:40;5.00;92.80
9987;DHT22;5033;46.310;11.214;2023-04-05T01:24:15;5.00;93.30
9987;DHT22;5033;46.310;11.214;2023-04-05T01:26:57;5.00;93.30
9987;DHT22;5033;46.310;11.214;2023-04-05T01:29:49;4.90;93.00
9987;DHT22;5033;46.310;11.214;2023-04-05T01:32:38;4.90;93.30
9987;DHT22;5033;46.310;11.214;2023-04-05T01:35:16;4.80;93.40
9987;DHT22;5033;46.310;11.214;2023-04-05T01:37:48;4.80;93.60
9987;DHT22;5033;46.310;11.214;2023-04-05T01:40:15;4.80;93.40
9987;DHT22;5033;46.310;11.214;2023-04-05T01:42:43;4.80;93.50
9987;DHT22;5033;46.310;11.214;2023-04-05T01:45:13;4.80;93.60
9987;DHT22;5033;46.310;11.214;2023-04-05T01:47:40;4.80;93.60
9987;DHT22;5033;46.310;11.214;2023-04-05T01:50:07;4.70;93.70
9987;DHT22;5033;46.310;11.214;2023-04-05T01:52:34;4.70;93.90
9987;DHT22;5033;46.310;11.214;2023-04-05T01:55:01;4.60;93.90
9987;DHT22;5033;46.310;11.214;2023-04-05T01:57:29;4.60;94.20
9987;DHT22;5033;46.310;11.214;2023-04-05T01:59:56;4.60;94.20
9987;DHT22;5033;46.310;11.214;2023-04-05T02:02:24;4.60;94.10
9987;DHT22;5033;46.310;11.214;2023-04-05T02:04:51;4.60;94.30
9987;DHT22;5033;46.310;11.214;2023-04-05T02:07:18;4.60;94.30
9987;DHT22;5033;46.310;11.214;2023-04-05T02:09:45;4.60;94.40
9987;DHT22;5033;46.310;11.214;2023-04-05T02:12:12;4.50;94.40
9987;DHT22;5033;46.310;11.214;2023-04-05T02:14:39;4.40;94.50
9987;DHT22;5033;46.310;11.214;2023-04-05T02:17:06;4.40;94.70
9987;DHT22;5033;46.310;11.214;2023-04-05T02:19:34;4.30;94.80
9987;DHT22;5033;46.310;11.214;2023-04-05T02:22:05;4.30;94.90
9987;DHT22;5033;46.310;11.214;2023-04-05T02:24:33;4.20;94.90
9987;DHT22;5033;46.310;11.214;2023-04-05T02:27:00;4.20;95.10
9987;DHT22;5033;46.310;11.214;2023-04-05T02:29:27;4.20;95.20
9987;DHT22;5033;46.310;11.214;2023-04-05T02:31:56;4.20;95.10
9987;DHT22;5033;46.310;11.214;2023-04-05T02:34:23;4.20;95.30
9987;DHT22;5033;46.310;11.214;2023-04-05T02:36:52;4.20;95.20
9987;DHT22;5033;46.310;11.214;2023-04-05T02:39:19;4.20;95.40
9987;DHT22;5033;46.310;11.214;2023-04-05T02:41:47;4.10;95.50
9987;DHT22;5033;46.310;11.214;2023-04-05T02:44:14;4.20;95.50
9987;DHT22;5033;46.310;11.214;2023-04-05T02:46:41;4.10;95.70
9987;DHT22;5033;46.310;11.214;2023-04-05T02:49:08;4.10;95.80
9987;DHT22;5033;46.310;11.214;2023-04-05T02:51:34;4.00;96.00
9987;DHT22;5033;46.310;11.214;2023-04-05T02:54:03;4.00;96.10
9987;DHT22;5033;46.310;11.214;2023-04-05T02:56:30;4.00;95.90
9987;DHT22;5033;46.310;11.214;2023-04-05T02:58:57;4.00;96.00
9987;DHT22;5033;46.310;11.214;2023-04-05T03:01:25;4.00;96.10
9987;DHT22;5033;46.310;11.214;2023-04-05T03:03:52;4.00;96.20
9987;DHT22;5033;46.310;11.214;2023-04-05T03:06:19;4.00;96.20
9987;DHT22;5033;46.310;11.214;2023-04-05T03:08:47;4.00;96.10
9987;DHT22;5033;46.310;11.214;2023-04-05T03:11:15;4.00;95.90
9987;DHT22;5033;46.310;11.214;2023-04-05T03:13:42;4.00;95.90
9987;DHT22;5033;46.310;11.214;2023-04-05T03:16:09;4.00;95.60
9987;DHT22;5033;46.310;11.214;2023-04-05T03:18:37;3.90;95.60
9987;DHT22;5033;46.310;11.214;2023-04-05T03:21:04;3.90;95.60
9987;DHT22;5033;46.310;11.214;2023-04-05T03:23:31;3.90;95.70
9987;DHT22;5033;46.310;11.214;2023-04-05T03:25:58;3.90;95.70
9987;DHT22;5033;46.310;11.214;2023-04-05T03:28:27;3.90;95.80
9987;DHT22;5033;46.310;11.214;2023-04-05T03:30:54;3.90;96.50
9987;DHT22;5033;46.310;11.214;2023-04-05T03:33:21;3.80;96.40
9987;DHT22;5033;46.310;11.214;2023-04-05T03:35:49;3.80;96.60
9987;DHT22;5033;46.310;11.214;2023-04-05T03:38:16;3.70;96.60
9987;DHT22;5033;46.310;11.214;2023-04-05T03:40:43;3.80;96.70
9987;DHT22;5033;46.310;11.214;2023-04-05T03:43:10;3.70;96.40
9987;DHT22;5033;46.310;11.214;2023-04-05T03:45:39;3.70;96.40
9987;DHT22;5033;46.310;11.214;2023-04-05T03:48:06;3.70;96.50
9987;DHT22;5033;46.310;11.214;2023-04-05T03:50:33;3.70;96.60
9987;DHT22;5033;46.310;11.214;2023-04-05T03:53:00;3.70;96.70
9987;DHT22;5033;46.310;11.214;2023-04-05T03:55:28;3.70;96.70
9987;DHT22;5033;46.310;11.214;2023-04-05T03:57:54;3.70;97.00
9987;DHT22;5033;46.310;11.214;2023-04-05T04:00:22;3.60;97.00
9987;DHT22;5033;46.310;11.214;2023-04-05T04:02:50;3.60;97.20
9987;DHT22;5033;46.310;11.214;2023-04-05T04:05:18;3.60;97.50
9987;DHT22;5033;46.310;11.214;2023-04-05T04:07:46;3.50;97.50
9987;DHT22;5033;46.310;11.214;2023-04-05T04:10:15;3.50;97.50
9987;DHT22;5033;46.310;11.214;2023-04-05T04:12:43;3.50;97.50
9987;DHT22;5033;46.310;11.214;2023-04-05T04:15:10;3.40;97.50
9987;DHT22;5033;46.310;11.214;2023-04-05T04:17:37;3.50;97.60
9987;DHT22;5033;46.310;11.214;2023-04-05T04:20:07;3.40;97.50
9987;DHT22;5033;46.310;11.214;2023-04-05T04:22:36;3.50;97.60
9987;DHT22;5033;46.310;11.214;2023-04-05T04:25:05;3.50;97.60
9987;DHT22;5033;46.310;11.214;2023-04-05T04:27:35;3.50;97.50
9987;DHT22;5033;46.310;11.214;2023-04-05T04:30:06;3.50;97.50
9987;DHT22;5033;46.310;11.214;2023-04-05T04:32:35;3.40;97.50
9987;DHT22;5033;46.310;11.214;2023-04-05T04:35:21;3.40;97.40
9987;DHT22;5033;46.310;11.214;2023-04-05T04:37:54;3.40;97.60
9987;DHT22;5033;46.310;11.214;2023-04-05T04:40:22;3.40;97.70
9987;DHT22;5033;46.310;11.214;2023-04-05T04:42:51;3.50;97.80
9987;DHT22;5033;46.310;11.214;2023-04-05T04:45:18;3.40;97.80
9987;DHT22;5033;46.310;11.214;2023-04-05T04:47:47;3.40;98.00
9987;DHT22;5033;46.310;11.214;2023-04-05T04:50:15;3.40;97.80
9987;DHT22;5033;46.310;11.214;2023-04-05T04:52:46;3.40;98.00
9987;DHT22;5033;46.310;11.214;2023-04-05T04:55:13;3.30;98.00
9987;DHT22;5033;46.310;11.214;2023-04-05T04:57:41;3.30;98.30
9987;DHT22;5033;46.310;11.214;2023-04-05T05:00:09;3.30;97.90
9987;DHT22;5033;46.310;11.214;2023-04-05T05:02:38;3.30;98.00
9987;DHT22;5033;46.310;11.214;2023-04-05T05:05:07;3.20;98.00
9987;DHT22;5033;46.310;11.214;2023-04-05T05:07:35;3.20;98.20
9987;DHT22;5033;46.310;11.214;2023-04-05T05:10:04;3.20;98.20
9987;DHT22;5033;46.310;11.214;2023-04-05T05:12:32;3.20;98.20
9987;DHT22;5033;46.310;11.214;2023-04-05T05:14:59;3.20;98.20
9987;DHT22;5033;46.310;11.214;2023-04-05T05:17:26;3.20;98.30
9987;DHT22;5033;46.310;11.214;2023-04-05T05:19:54;3.20;98.20
9987;DHT22;5033;46.310;11.214;2023-04-05T05:22:21;3.20;98.30
9987;DHT22;5033;46.310;11.214;2023-04-05T05:24:48;3.40;98.20
9987;DHT22;5033;46.310;11.214;2023-04-05T05:27:16;3.60;98.20
9987;DHT22;5033;46.310;11.214;2023-04-05T05:29:43;4.00;98.20
9987;DHT22;5033;46.310;11.214;2023-04-05T05:32:10;4.30;97.70
9987;DHT22;5033;46.310;11.214;2023-04-05T05:34:41;4.60;96.90
9987;DHT22;5033;46.310;11.214;2023-04-05T05:37:10;5.00;96.60
9987;DHT22;5033;46.310;11.214;2023-04-05T05:39:37;5.10;96.60
9987;DHT22;5033;46.310;11.214;2023-04-05T05:42:05;5.40;96.70
9987;DHT22;5033;46.310;11.214;2023-04-05T05:44:33;5.70;95.50
9987;DHT22;5033;46.310;11.214;2023-04-05T05:47:00;5.90;95.40
9987;DHT22;5033;46.310;11.214;2023-04-05T05:49:28;6.20;94.60
9987;DHT22;5033;46.310;11.214;2023-04-05T05:51:55;6.40;94.20
9987;DHT22;5033;46.310;11.214;2023-04-05T05:54:23;6.60;94.00
9987;DHT22;5033;46.310;11.214;2023-04-05T05:56:50;6.80;94.30
9987;DHT22;5033;46.310;11.214;2023-04-05T05:59:17;7.00;93.40
9987;DHT22;5033;46.310;11.214;2023-04-05T06:01:46;7.30;93.20
9987;DHT22;5033;46.310;11.214;2023-04-05T06:04:16;7.50;92.90
9987;DHT22;5033;46.310;11.214;2023-04-05T06:06:43;7.70;93.60
9987;DHT22;5033;46.310;11.214;2023-04-05T06:09:12;7.80;93.60
9987;DHT22;5033;46.310;11.214;2023-04-05T06:11:40;7.90;93.10
9987;DHT22;5033;46.310;11.214;2023-04-05T06:14:07;7.90;93.40
9987;DHT22;5033;46.310;11.214;2023-04-05T06:16:34;7.70;93.60
9987;DHT22;5033;46.310;11.214;2023-04-05T06:19:02;7.60;93.50
9987;DHT22;5033;46.310;11.214;2023-04-05T06:21:29;7.50;93.60
9987;DHT22;5033;46.310;11.214;2023-04-05T06:23:56;7.70;93.70
9987;DHT22;5033;46.310;11.214;2023-04-05T06:26:24;7.90;93.70
9987;DHT22;5033;46.310;11.214;2023-04-05T06:28:54;8.00;94.40
9987;DHT22;5033;46.310;11.214;2023-04-05T06:31:26;8.00;93.30
9987;DHT22;5033;46.310;11.214;2023-04-05T06:33:53;7.90;92.90
9987;DHT22;5033;46.310;11.214;2023-04-05T06:36:21;7.90;92.80
9987;DHT22;5033;46.310;11.214;2023-04-05T06:38:49;7.90;93.20
9987;DHT22;5033;46.310;11.214;2023-04-05T06:41:16;8.00;93.10
9987;DHT22;5033;46.310;11.214;2023-04-05T06:43:43;8.20;92.20
9987;DHT22;5033;46.310;11.214;2023-04-05T06:46:10;8.40;91.70
9987;DHT22;5033;46.310;11.214;2023-04-05T06:48:38;8.60;92.00
9987;DHT22;5033;46.310;11.214;2023-04-05T06:51:05;8.70;92.10
9987;DHT22;5033;46.310;11.214;2023-04-05T06:53:34;8.70;91.50
9987;DHT22;5033;46.310;11.214;2023-04-05T06:56:01;8.70;91.00
9987;DHT22;5033;46.310;11.214;2023-04-05T06:58:28;8.70;91.80
9987;DHT22;5033;46.310;11.214;2023-04-05T07:00:55;8.80;91.60
9987;DHT22;5033;46.310;11.214;2023-04-05T07:03:22;8.90;90.00
9987;DHT22;5033;46.310;11.214;2023-04-05T07:05:50;9.00;89.60
9987;DHT22;5033;46.310;11.214;2023-04-05T07:08:18;9.30;89.00
9987;DHT22;5033;46.310;11.214;2023-04-05T07:10:47;9.40;88.90
9987;DHT22;5033;46.310;11.214;2023-04-05T07:13:14;9.40;89.60
9987;DHT22;5033;46.310;11.214;2023-04-05T07:15:42;9.60;90.20
9987;DHT22;5033;46.310;11.214;2023-04-05T07:18:09;9.70;90.40
9987;DHT22;5033;46.310;11.214;2023-04-05T07:20:39;9.70;89.50
9987;DHT22;5033;46.310;11.214;2023-04-05T07:23:06;9.70;90.20
9987;DHT22;5033;46.310;11.214;2023-04-05T07:25:33;9.50;90.10
9987;DHT22;5033;46.310;11.214;2023-04-05T07:28:02;9.50;88.40
9987;DHT22;5033;46.310;11.214;2023-04-05T07:30:29;9.60;85.10
9987;DHT22;5033;46.310;11.214;2023-04-05T07:32:57;9.80;84.20
9987;DHT22;5033;46.310;11.214;2023-04-05T07:35:24;10.10;83.70
9987;DHT22;5033;46.310;11.214;2023-04-05T07:37:52;10.20;81.80
9987;DHT22;5033;46.310;11.214;2023-04-05T07:40:19;10.20;81.30
9987;DHT22;5033;46.310;11.214;2023-04-05T07:42:46;10.20;81.70
9987;DHT22;5033;46.310;11.214;2023-04-05T07:45:14;10.20;80.10
9987;DHT22;5033;46.310;11.214;2023-04-05T07:47:41;10.40;80.40
9987;DHT22;5033;46.310;11.214;2023-04-05T07:50:09;10.60;79.70
9987;DHT22;5033;46.310;11.214;2023-04-05T07:52:39;10.50;80.50
9987;DHT22;5033;46.310;11.214;2023-04-05T07:55:07;10.40;83.10
9987;DHT22;5033;46.310;11.214;2023-04-05T07:57:34;10.30;80.00
9987;DHT22;5033;46.310;11.214;2023-04-05T08:00:02;10.30;79.90
9987;DHT22;5033;46.310;11.214;2023-04-05T08:02:33;10.40;77.70
9987;DHT22;5033;46.310;11.214;2023-04-05T08:05:00;10.50;77.50
9987;DHT22;5033;46.310;11.214;2023-04-05T08:07:27;10.60;77.90
9987;DHT22;5033;46.310;11.214;2023-04-05T08:09:55;10.70;77.80
9987;DHT22;5033;46.310;11.214;2023-04-05T08:12:24;10.90;79.50
9987;DHT22;5033;46.310;11.214;2023-04-05T08:14:51;11.00;78.00
9987;DHT22;5033;46.310;11.214;2023-04-05T08:17:18;11.00;78.60
9987;DHT22;5033;46.310;11.214;2023-04-05T08:19:47;11.10;79.50
9987;DHT22;5033;46.310;11.214;2023-04-05T08:22:14;11.00;80.40
9987;DHT22;5033;46.310;11.214;2023-04-05T08:24:43;11.20;77.20
9987;DHT22;5033;46.310;11.214;2023-04-05T08:27:10;11.50;77.10
9987;DHT22;5033;46.310;11.214;2023-04-05T08:29:37;11.60;75.40
9987;DHT22;5033;46.310;11.214;2023-04-05T08:32:04;11.60;75.30
9987;DHT22;5033;46.310;11.214;2023-04-05T08:34:31;11.90;75.60
9987;DHT22;5033;46.310;11.214;2023-04-05T08:36:59;11.80;77.50
9987;DHT22;5033;46.310;11.214;2023-04-05T08:39:26;12.00;78.20
9987;DHT22;5033;46.310;11.214;2023-04-05T08:41:59;11.90;73.00
9987;DHT22;5033;46.310;11.214;2023-04-05T08:44:30;11.90;75.80
9987;DHT22;5033;46.310;11.214;2023-04-05T08:46:58;11.70;75.70
9987;DHT22;5033;46.310;11.214;2023-04-05T08:49:25;11.80;76.30
9987;DHT22;5033;46.310;11.214;2023-04-05T08:51:53;12.10;77.80
9987;DHT22;5033;46.310;11.214;2023-04-05T08:54:22;12.00;77.40
9987;DHT22;5033;46.310;11.214;2023-04-05T08:56:49;11.90;73.40
9987;DHT22;5033;46.310;11.214;2023-04-05T08:59:19;12.10;74.80
9987;DHT22;5033;46.310;11.214;2023-04-05T09:01:49;12.20;77.40
9987;DHT22;5033;46.310;11.214;2023-04-05T09:04:19;12.00;77.40
9987;DHT22;5033;46.310;11.214;2023-04-05T09:06:47;11.90;80.10
9987;DHT22;5033;46.310;11.214;2023-04-05T09:09:15;11.90;78.50
9987;DHT22;5033;46.310;11.214;2023-04-05T09:11:44;11.90;77.80
9987;DHT22;5033;46.310;11.214;2023-04-05T09:14:11;11.80;77.40
9987;DHT22;5033;46.310;11.214;2023-04-05T09:16:39;12.20;77.60
9987;DHT22;5033;46.310;11.214;2023-04-05T09:19:07;12.40;77.20
9987;DHT22;5033;46.310;11.214;2023-04-05T09:21:57;12.40;77.00
9987;DHT22;5033;46.310;11.214;2023-04-05T09:24:29;12.30;76.00
9987;DHT22;5033;46.310;11.214;2023-04-05T09:27:04;12.20;76.60
9987;DHT22;5033;46.310;11.214;2023-04-05T09:29:32;12.20;74.50
9987;DHT22;5033;46.310;11.214;2023-04-05T09:32:00;12.30;77.50
9987;DHT22;5033;46.310;11.214;2023-04-05T09:34:29;12.30;76.00
9987;DHT22;5033;46.310;11.214;2023-04-05T09:36:57;12.20;75.10
9987;DHT22;5033;46.310;11.214;2023-04-05T09:39:28;12.30;76.20
9987;DHT22;5033;46.310;11.214;2023-04-05T09:42:05;12.40;76.00
9987;DHT22;5033;46.310;11.214;2023-04-05T09:44:54;12.40;75.80
9987;DHT22;5033;46.310;11.214;2023-04-05T09:47:23;12.40;77.50
9987;DHT22;5033;46.310;11.214;2023-04-05T09:49:52;12.40;77.70
9987;DHT22;5033;46.310;11.214;2023-04-05T09:52:20;12.50;77.00
9987;DHT22;5033;46.310;11.214;2023-04-05T09:54:48;12.60;77.60
9987;DHT22;5033;46.310;11.214;2023-04-05T09:57:18;12.60;76.20
9987;DHT22;5033;46.310;11.214;2023-04-05T09:59:46;12.60;74.30
9987;DHT22;5033;46.310;11.214;2023-04-05T10:02:13;12.80;76.30
9987;DHT22;5033;46.310;11.214;2023-04-05T10:04:42;12.60;77.70
9987;DHT22;5033;46.310;11.214;2023-04-05T10:07:11;12.50;74.90
9987;DHT22;5033;46.310;11.214;2023-04-05T10:09:39;12.50;76.70
9987;DHT22;5033;46.310;11.214;2023-04-05T10:12:08;12.80;80.40
9987;DHT22;5033;46.310;11.214;2023-04-05T10:14:37;13.00;77.30
9987;DHT22;5033;46.310;11.214;2023-04-05T10:17:08;13.00;76.10
9987;DHT22;5033;46.310;11.214;2023-04-05T10:19:48;13.50;77.50
9987;DHT22;5033;46.310;11.214;2023-04-05T10:22:32;13.60;76.70
9987;DHT22;5033;46.310;11.214;2023-04-05T10:25:04;13.60;76.00
9987;DHT22;5033;46.310;11.214;2023-04-05T10:27:36;13.50;75.90
9987;DHT22;5033;46.310;11.214;2023-04-05T10:30:08;13.40;76.40
9987;DHT22;5033;46.310;11.214;2023-04-05T10:32:47;13.40;76.10
9987;DHT22;5033;46.310;11.214;2023-04-05T10:35:23;13.40;77.10
9987;DHT22;5033;46.310;11.214;2023-04-05T10:38:03;13.30;77.50
9987;DHT22;5033;46.310;11.214;2023-04-05T10:40:32;13.30;77.10
9987;DHT22;5033;46.310;11.214;2023-04-05T10:42:59;13.30;76.40
9987;DHT22;5033;46.310;11.214;2023-04-05T10:45:28;13.40;74.60
9987;DHT22;5033;46.310;11.214;2023-04-05T10:48:01;13.30;73.60
9987;DHT22;5033;46.310;11.214;2023-04-05T10:50:31;13.30;74.90
9987;DHT22;5033;46.310;11.214;2023-04-05T10:52:59;13.50;75.80
9987;DHT22;5033;46.310;11.214;2023-04-05T10:55:27;13.40;73.50
9987;DHT22;5033;46.310;11.214;2023-04-05T10:57:54;13.50;74.00
9987;DHT22;5033;46.310;11.214;2023-04-05T11:00:22;13.50;72.60
9987;DHT22;5033;46.310;11.214;2023-04-05T11:02:54;13.50;71.70
9987;DHT22;5033;46.310;11.214;2023-04-05T11:05:29;13.50;72.10
9987;DHT22;5033;46.310;11.214;2023-04-05T11:07:59;13.40;73.10
9987;DHT22;5033;46.310;11.214;2023-04-05T11:10:29;13.30;73.40
9987;DHT22;5033;46.310;11.214;2023-04-05T11:13:07;13.60;72.80
9987;DHT22;5033;46.310;11.214;2023-04-05T11:15:35;13.80;73.80
9987;DHT22;5033;46.310;11.214;2023-04-05T11:18:08;13.90;72.30
9987;DHT22;5033;46.310;11.214;2023-04-05T11:20:43;13.90;73.00
9987;DHT22;5033;46.310;11.214;2023-04-05T11:23:11;13.90;72.20
9987;DHT22;5033;46.310;11.214;2023-04-05T11:25:39;14.00;72.60
9987;DHT22;5033;46.310;11.214;2023-04-05T11:28:21;13.80;71.20
9987;DHT22;5033;46.310;11.214;2023-04-05T11:30:49;13.80;71.40
9987;DHT22;5033;46.310;11.214;2023-04-05T11:33:52;14.00;71.30
9987;DHT22;5033;46.310;11.214;2023-04-05T11:36:34;13.90;70.30
9987;DHT22;5033;46.310;11.214;2023-04-05T11:39:24;13.90;72.10
9987;DHT22;5033;46.310;11.214;2023-04-05T11:41:58;13.90;70.00
9987;DHT22;5033;46.310;11.214;2023-04-05T11:44:26;14.10;69.10
9987;DHT22;5033;46.310;11.214;2023-04-05T11:46:53;14.30;69.40
9987;DHT22;5033;46.310;11.214;2023-04-05T11:49:22;14.20;68.90
9987;DHT22;5033;46.310;11.214;2023-04-05T11:51:51;14.10;69.50
9987;DHT22;5033;46.310;11.214;2023-04-05T11:54:30;14.00;69.40
9987;DHT22;5033;46.310;11.214;2023-04-05T11:56:57;14.20;70.20
9987;DHT22;5033;46.310;11.214;2023-04-05T11:59:29;14.20;67.50
9987;DHT22;5033;46.310;11.214;2023-04-05T12:02:00;14.30;67.10
9987;DHT22;5033;46.310;11.214;2023-04-05T12:04:29;14.20;67.50
9987;DHT22;5033;46.310;11.214;2023-04-05T12:07:14;14.10;67.70
9987;DHT22;5033;46.310;11.214;2023-04-05T12:10:01;14.30;66.70
9987;DHT22;5033;46.310;11.214;2023-04-05T12:12:32;14.40;65.90
9987;DHT22;5033;46.310;11.214;2023-04-05T12:15:00;14.30;66.00
9987;DHT22;5033;46.310;11.214;2023-04-05T12:17:41;14.40;66.40
9987;DHT22;5033;46.310;11.214;2023-04-05T12:20:11;14.30;64.70
9987;DHT22;5033;46.310;11.214;2023-04-05T12:22:40;14.30;66.20
9987;DHT22;5033;46.310;11.214;2023-04-05T12:25:07;14.30;65.00
9987;DHT22;5033;46.310;11.214;2023-04-05T12:27:35;14.40;64.00
9987;DHT22;5033;46.310;11.214;2023-04-05T12:30:13;14.50;64.40
9987;DHT22;5033;46.310;11.214;2023-04-05T12:32:45;14.80;63.70
9987;DHT22;5033;46.310;11.214;2023-04-05T12:35:15;14.90;63.30
9987;DHT22;5033;46.310;11.214;2023-04-05T12:37:42;14.80;61.80
9987;DHT22;5033;46.310;11.214;2023-04-05T12:40:10;15.00;62.50
9987;DHT22;5033;46.310;11.214;2023-04-05T12:42:38;15.10;60.40
9987;DHT22;5033;46.310;11.214;2023-04-05T12:45:08;15.30;62.10
9987;DHT22;5033;46.310;11.214;2023-04-05T12:47:35;15.30;61.50
9987;DHT22;5033;46.310;11.214;2023-04-05T12:50:16;15.30;61.30
9987;DHT22;5033;46.310;11.214;2023-04-05T12:52:56;15.40;61.50
9987;DHT22;5033;46.310;11.214;2023-04-05T12:55:24;15.40;62.60
9987;DHT22;5033;46.310;11.214;2023-04-05T12:57:52;15.40;61.50
9987;DHT22;5033;46.310;11.214;2023-04-05T13:00:20;15.50;59.20
9987;DHT22;5033;46.310;11.214;2023-04-05T13:02:51;15.50;57.30
9987;DHT22;5033;46.310;11.214;2023-04-05T13:05:21;15.50;59.80
9987;DHT22;5033;46.310;11.214;2023-04-05T13:07:48;15.40;59.20
9987;DHT22;5033;46.310;11.214;2023-04-05T13:10:15;15.40;57.90
9987;DHT22;5033;46.310;11.214;2023-04-05T13:12:42;15.50;57.80
9987;DHT22;5033;46.310;11.214;2023-04-05T13:15:09;15.40;57.00
9987;DHT22;5033;46.310;11.214;2023-04-05T13:17:37;15.50;57.50
9987;DHT22;5033;46.310;11.214;2023-04-05T13:20:05;15.50;54.80
9987;DHT22;5033;46.310;11.214;2023-04-05T13:22:33;15.50;54.20
9987;DHT22;5033;46.310;11.214;2023-04-05T13:25:01;15.70;54.30
9987;DHT22;5033;46.310;11.214;2023-04-05T13:27:28;15.70;56.40
9987;DHT22;5033;46.310;11.214;2023-04-05T13:29:55;15.80;55.90
9987;DHT22;5033;46.310;11.214;2023-04-05T13:32:22;15.80;55.00
9987;DHT22;5033;46.310;11.214;2023-04-05T13:34:49;15.80;55.70
9987;DHT22;5033;46.310;11.214;2023-04-05T13:37:16;15.80;54.70
9987;DHT22;5033;46.310;11.214;2023-04-05T13:39:44;15.90;53.50
9987;DHT22;5033;46.310;11.214;2023-04-05T13:42:11;15.90;54.90
9987;DHT22;5033;46.310;11.214;2023-04-05T13:44:38;16.10;55.60
9987;DHT22;5033;46.310;11.214;2023-04-05T13:47:05;16.10;54.70
9987;DHT22;5033;46.310;11.214;2023-04-05T13:49:32;16.00;54.10
9987;DHT22;5033;46.310;11.214;2023-04-05T13:52:00;15.90;54.50
9987;DHT22;5033;46.310;11.214;2023-04-05T13:54:27;15.70;53.50
9987;DHT22;5033;46.310;11.214;2023-04-05T13:56:55;15.70;54.80
9987;DHT22;5033;46.310;11.214;2023-04-05T13:59:23;15.60;55.80
9987;DHT22;5033;46.310;11.214;2023-04-05T14:01:51;15.60;56.20
9987;DHT22;5033;46.310;11.214;2023-04-05T14:04:18;15.60;56.20
9987;DHT22;5033;46.310;11.214;2023-04-05T14:06:45;15.60;57.80
9987;DHT22;5033;46.310;11.214;2023-04-05T14:09:12;15.50;58.70
9987;DHT22;5033;46.310;11.214;2023-04-05T14:11:39;15.40;57.60
9987;DHT22;5033;46.310;11.214;2023-04-05T14:14:07;15.20;57.40
9987;DHT22;5033;46.310;11.214;2023-04-05T14:16:34;15.00;58.30
9987;DHT22;5033;46.310;11.214;2023-04-05T14:19:02;14.90;57.90
9987;DHT22;5033;46.310;11.214;2023-04-05T14:21:30;14.80;57.60
9987;DHT22;5033;46.310;11.214;2023-04-05T14:23:57;14.80;58.70
9987;DHT22;5033;46.310;11.214;2023-04-05T14:26:25;14.60;58.10
9987;DHT22;5033;46.310;11.214;2023-04-05T14:28:53;14.50;57.80
9987;DHT22;5033;46.310;11.214;2023-04-05T14:31:21;14.60;58.10
9987;DHT22;5033;46.310;11.214;2023-04-05T14:33:49;14.70;58.10
9987;DHT22;5033;46.310;11.214;2023-04-05T14:36:17;14.70;58.60
9987;DHT22;5033;46.310;11.214;2023-04-05T14:38:44;14.60;58.10
9987;DHT22;5033;46.310;11.214;2023-04-05T14:41:11;14.60;58.20
9987;DHT22;5033;46.310;11.214;2023-04-05T14:43:38;14.50;58.50
9987;DHT22;5033;46.310;11.214;2023-04-05T14:46:05;14.70;58.20
9987;DHT22;5033;46.310;11.214;2023-04-05T14:48:33;14.80;57.80
9987;DHT22;5033;46.310;11.214;2023-04-05T14:51:02;14.70;57.50
9987;DHT22;5033;46.310;11.214;2023-04-05T14:53:30;14.60;57.10
9987;DHT22;5033;46.310;11.214;2023-04-05T14:55:57;14.70;57.50
9987;DHT22;5033;46.310;11.214;2023-04-05T14:58:24;14.60;57.00
9987;DHT22;5033;46.310;11.214;2023-04-05T15:00:52;14.50;57.70
9987;DHT22;5033;46.310;11.214;2023-04-05T15:03:19;14.50;57.70
9987;DHT22;5033;46.310;11.214;2023-04-05T15:05:48;14.40;58.20
9987;DHT22;5033;46.310;11.214;2023-04-05T15:08:15;14.30;58.30
9987;DHT22;5033;46.310;11.214;2023-04-05T15:10:42;14.10;58.50
9987;DHT22;5033;46.310;11.214;2023-04-05T15:13:10;13.80;59.00
9987;DHT22;5033;46.310;11.214;2023-04-05T15:15:38;13.90;59.60
9987;DHT22;5033;46.310;11.214;2023-04-05T15:18:05;13.90;59.10
9987;DHT22;5033;46.310;11.214;2023-04-05T15:20:33;13.80;59.50
9987;DHT22;5033;46.310;11.214;2023-04-05T15:23:02;13.70;61.00
9987;DHT22;5033;46.310;11.214;2023-04-05T15:25:29;13.50;61.60
9987;DHT22;5033;46.310;11.214;2023-04-05T15:28:18;13.40;61.60
9987;DHT22;5033;46.310;11.214;2023-04-05T15:30:45;13.20;63.30
9987;DHT22;5033;46.310;11.214;2023-04-05T15:33:12;12.90;63.10
9987;DHT22;5033;46.310;11.214;2023-04-05T15:35:39;12.50;64.20
9987;DHT22;5033;46.310;11.214;2023-04-05T15:38:08;12.10;65.10
9987;DHT22;5033;46.310;11.214;2023-04-05T15:40:35;11.90;65.80
9987;DHT22;5033;46.310;11.214;2023-04-05T15:43:02;11.80;66.40
9987;DHT22;5033;46.310;11.214;2023-04-05T15:45:29;11.70;66.90
9987;DHT22;5033;46.310;11.214;2023-04-05T15:47:56;11.60;67.30
9987;DHT22;5033;46.310;11.214;2023-04-05T15:50:23;11.60;67.60
9987;DHT22;5033;46.310;11.214;2023-04-05T15:52:50;11.50;68.20
9987;DHT22;5033;46.310;11.214;2023-04-05T15:55:18;11.50;68.50
9987;DHT22;5033;46.310;11.214;2023-04-05T15:57:45;11.40;69.30
9987;DHT22;5033;46.310;11.214;2023-04-05T16:00:14;11.40;69.70
9987;DHT22;5033;46.310;11.214;2023-04-05T16:02:41;11.30;70.30
9987;DHT22;5033;46.310;11.214;2023-04-05T16:05:08;11.20;71.00
9987;DHT22;5033;46.310;11.214;2023-04-05T16:07:36;11.10;71.60